createdAt,value
2022-11-21T05:18:00.130Z,49.54
2022-11-21T05:20:26.683Z,48.09
2022-11-21T05:22:53.256Z,48.15
2022-11-21T05:25:19.783Z,48.18
2022-11-21T05:27:46.343Z,48.70
2022-11-21T05:30:13.000Z,47.42
2022-11-21T05:32:39.467Z,48.36
2022-11-21T05:35:07.470Z,48.67
2022-11-21T05:37:33.944Z,47.94
2022-11-21T05:40:09.695Z,48.25
2022-11-21T05:42:58.372Z,47.60
2022-11-21T05:45:24.865Z,47.91
2022-11-21T05:47:51.384Z,47.96
2022-11-21T05:50:20.137Z,46.96
2022-11-21T05:52:46.928Z,46.58
2022-11-21T05:55:13.511Z,46.40
2022-11-21T05:57:40.137Z,47.67
2022-11-21T06:00:07.268Z,47.86
2022-11-21T06:02:52.692Z,48.72
2022-11-21T06:05:19.310Z,46.51
2022-11-21T06:07:46.004Z,47.57
2022-11-21T06:10:12.539Z,49.32
2022-11-21T06:12:38.981Z,47.66
2022-11-21T06:15:05.784Z,48.79
2022-11-21T06:17:32.544Z,47.79
2022-11-21T06:24:24.075Z,49.55
2022-11-21T06:26:50.489Z,48.08
2022-11-21T06:29:16.940Z,48.19
2022-11-21T06:31:43.381Z,47.15
2022-11-21T06:34:09.816Z,48.75
2022-11-21T06:36:37.225Z,47.30
2022-11-21T06:39:03.976Z,48.21
2022-11-21T06:41:31.866Z,46.47
2022-11-21T06:44:00.810Z,48.25
2022-11-21T06:46:27.750Z,48.36
2022-11-21T06:48:54.443Z,51.96
2022-11-21T06:51:22.954Z,53.33
2022-11-21T06:53:55.863Z,52.99
2022-11-21T06:56:32.566Z,53.85
2022-11-21T06:58:59.342Z,52.17
2022-11-21T07:01:25.885Z,51.25
2022-11-21T07:03:53.103Z,51.25
2022-11-21T07:06:19.660Z,50.68
2022-11-21T07:08:46.248Z,50.41
2022-11-21T07:11:29.826Z,50.01
2022-11-21T07:13:56.581Z,50.23
2022-11-21T07:16:32.493Z,51.40
2022-11-21T07:19:00.251Z,51.44
2022-11-21T07:21:32.922Z,51.59
2022-11-21T07:23:59.629Z,52.40
2022-11-21T07:26:26.058Z,53.38
2022-11-21T07:28:53.422Z,54.46
2022-11-21T07:31:19.873Z,54.08
2022-11-21T07:33:47.571Z,54.27
2022-11-21T07:36:14.117Z,54.24
2022-11-21T07:38:42.159Z,52.93
2022-11-21T07:41:10.010Z,53.06
2022-11-21T07:43:36.562Z,53.73
2022-11-21T07:46:03.035Z,53.84
2022-11-21T07:48:29.478Z,53.15
2022-11-21T07:51:06.002Z,53.56
2022-11-21T07:53:32.628Z,52.26
2022-11-21T07:55:59.855Z,52.64
2022-11-21T07:58:26.717Z,51.62
2022-11-21T08:00:53.770Z,52.42
2022-11-21T08:03:20.477Z,51.40
2022-11-21T08:05:47.379Z,51.29
2022-11-21T08:08:14.410Z,52.27
2022-11-21T08:10:43.131Z,52.16
2022-11-21T08:13:12.743Z,53.23
2022-11-21T08:15:39.613Z,52.76
2022-11-21T08:18:14.385Z,54.89
2022-11-21T08:20:41.628Z,54.55
2022-11-21T08:23:09.928Z,55.34
2022-11-21T08:25:40.891Z,54.78
2022-11-21T08:28:36.644Z,53.48
2022-11-21T08:31:07.157Z,52.93
2022-11-21T08:33:34.735Z,52.00
2022-11-21T08:36:21.449Z,51.10
2022-11-21T08:38:47.903Z,50.95
2022-11-21T08:41:33.295Z,52.15
2022-11-21T08:44:00.065Z,52.01
2022-11-21T08:46:28.151Z,51.20
2022-11-21T08:48:56.815Z,51.15
2022-11-21T08:51:23.326Z,52.17
2022-11-21T08:53:50.495Z,50.21
2022-11-21T08:56:16.945Z,51.29
2022-11-21T08:58:46.703Z,51.11
2022-11-21T09:01:13.225Z,51.07
2022-11-21T09:03:39.697Z,53.22
2022-11-21T09:06:06.611Z,53.34
2022-11-21T09:08:33.116Z,52.04
2022-11-21T09:11:04.656Z,52.91
2022-11-21T09:13:31.411Z,52.27
2022-11-21T09:16:20.431Z,52.18
2022-11-21T09:18:47.651Z,50.48
2022-11-21T09:21:18.562Z,50.99
2022-11-21T09:23:45.331Z,50.00
2022-11-21T09:26:12.174Z,52.65
2022-11-21T09:28:41.349Z,50.74
2022-11-21T09:31:08.670Z,52.98
2022-11-21T09:33:35.649Z,52.17
2022-11-21T09:36:02.079Z,50.49
2022-11-21T09:38:30.063Z,50.36
2022-11-21T09:41:37.394Z,50.36
2022-11-21T09:44:47.343Z,50.85
2022-11-21T09:47:23.234Z,51.20
2022-11-21T09:49:56.988Z,50.51
2022-11-21T09:52:30.774Z,49.42
2022-11-21T09:55:01.179Z,50.69
2022-11-21T09:57:32.118Z,49.23
2022-11-21T10:00:04.069Z,50.02
2022-11-21T10:02:40.009Z,51.13
2022-11-21T10:05:13.130Z,50.32
2022-11-21T10:07:40.388Z,49.83
2022-11-21T10:10:22.395Z,48.99
2022-11-21T10:13:13.213Z,49.04
2022-11-21T10:15:48.674Z,50.05
2022-11-21T10:18:54.501Z,49.44
2022-11-21T10:21:45.349Z,48.41
2022-11-21T10:24:35.962Z,47.49
2022-11-21T10:27:14.581Z,47.31
2022-11-21T10:29:57.152Z,48.00
2022-11-21T10:32:39.141Z,48.19
2022-11-21T10:35:15.144Z,48.31
2022-11-21T10:38:01.894Z,48.22
2022-11-21T10:40:47.298Z,49.00
2022-11-21T10:43:35.526Z,48.24
2022-11-21T10:46:01.976Z,48.81
2022-11-21T10:48:28.552Z,47.60
2022-11-21T10:51:13.305Z,47.81
2022-11-21T10:54:03.200Z,47.09
2022-11-21T10:56:35.473Z,46.58
2022-11-21T10:59:13.858Z,45.02
2022-11-21T11:01:40.404Z,45.79
2022-11-21T11:04:29.007Z,46.67
2022-11-21T11:06:57.321Z,46.41
2022-11-21T11:09:34.603Z,46.46
2022-11-21T11:12:25.083Z,47.03
2022-11-21T11:14:54.792Z,46.66
2022-11-21T11:17:33.751Z,46.83
2022-11-21T11:20:30.076Z,45.99
2022-11-21T11:22:56.567Z,46.10
2022-11-21T11:25:23.368Z,46.52
2022-11-21T11:27:49.836Z,46.57
2022-11-21T11:30:19.776Z,47.66
2022-11-21T11:32:48.052Z,48.59
2022-11-21T11:35:21.980Z,48.37
2022-11-21T11:38:17.074Z,47.63
2022-11-21T11:40:47.696Z,46.32
2022-11-21T11:43:50.643Z,47.12
2022-11-21T11:46:55.093Z,46.24
2022-11-21T11:49:52.972Z,47.21
2022-11-21T11:52:24.445Z,47.25
2022-11-21T11:54:58.298Z,47.33
2022-11-21T11:57:26.747Z,47.07
2022-11-21T12:00:19.617Z,47.94
2022-11-21T12:02:54.384Z,46.87
2022-11-21T12:05:25.607Z,47.65
2022-11-21T12:11:32.409Z,47.23
2022-11-21T12:14:38.670Z,47.15
2022-11-21T12:17:08.871Z,46.56
2022-11-21T12:19:37.464Z,45.66
2022-11-21T12:22:06.565Z,46.05
2022-11-21T12:24:42.528Z,47.23
2022-11-21T12:27:52.605Z,46.62
2022-11-21T12:31:17.186Z,45.75
2022-11-21T12:34:02.877Z,44.58
2022-11-21T12:36:43.780Z,44.40
2022-11-21T12:39:59.290Z,44.67
2022-11-21T12:42:50.085Z,44.51
2022-11-21T12:45:50.229Z,44.00
2022-11-21T12:48:55.628Z,43.50
2022-11-21T12:51:52.818Z,42.65
2022-11-21T12:54:50.196Z,42.65
2022-11-21T12:58:16.379Z,43.73
2022-11-21T13:01:03.507Z,42.87
2022-11-21T13:03:45.416Z,41.45
2022-11-21T13:06:28.690Z,42.27
2022-11-21T13:08:59.414Z,42.84
2022-11-21T13:12:00.433Z,42.95
2022-11-21T13:15:05.424Z,42.35
2022-11-21T13:17:31.804Z,41.50
2022-11-21T13:20:16.990Z,42.32
2022-11-21T13:22:43.681Z,41.40
2022-11-21T13:25:40.197Z,40.02
2022-11-21T13:28:20.121Z,40.24
2022-11-21T13:30:47.183Z,40.88
2022-11-21T13:33:35.651Z,40.62
2022-11-21T13:36:05.825Z,40.72
2022-11-21T13:38:53.687Z,39.06
2022-11-21T13:41:54.246Z,38.67
2022-11-21T13:44:38.268Z,38.74
2022-11-21T13:47:26.476Z,39.53
2022-11-21T13:50:15.949Z,37.95
2022-11-21T13:53:02.234Z,39.38
2022-11-21T13:55:44.865Z,38.05
2022-11-21T13:58:16.705Z,37.90
2022-11-21T14:01:08.570Z,38.74
2022-11-21T14:04:06.254Z,38.37
2022-11-21T14:07:16.856Z,39.46
2022-11-21T14:09:49.236Z,39.12
2022-11-21T14:12:33.828Z,38.84
2022-11-21T14:15:25.481Z,38.88
2022-11-21T14:17:57.247Z,38.23
2022-11-21T14:20:27.710Z,38.36
2022-11-21T14:22:57.285Z,38.99
2022-11-21T14:25:47.678Z,39.43
2022-11-21T14:28:26.866Z,39.92
2022-11-21T14:31:08.703Z,40.90
2022-11-21T14:33:42.756Z,41.77
2022-11-21T14:36:26.443Z,41.69
2022-11-21T14:39:20.852Z,41.27
2022-11-21T14:41:44.813Z,40.96
2022-11-21T14:44:38.588Z,40.89
2022-11-21T14:47:23.607Z,41.25
2022-11-21T14:49:58.539Z,40.43
2022-11-21T14:52:31.451Z,40.38
2022-11-21T14:55:32.937Z,40.27
2022-11-21T14:57:46.766Z,40.36
2022-11-21T15:00:51.319Z,39.84
2022-11-21T15:03:19.546Z,40.23
2022-11-21T15:06:05.021Z,40.21
2022-11-21T15:11:22.763Z,40.66
2022-11-21T15:14:15.965Z,41.24
2022-11-21T15:16:50.875Z,41.58
2022-11-21T15:19:25.347Z,41.36
2022-11-21T15:21:54.875Z,41.39
2022-11-21T15:24:42.174Z,41.53
2022-11-21T15:27:27.008Z,42.15
2022-11-21T15:30:12.875Z,42.13
2022-11-21T15:33:01.311Z,42.48
2022-11-21T15:35:49.242Z,42.72
2022-11-21T15:38:24.274Z,42.63
2022-11-21T15:41:10.116Z,42.70
2022-11-21T15:43:48.154Z,42.86
2022-11-21T15:46:17.951Z,42.81
2022-11-21T15:48:47.027Z,43.10
2022-11-21T15:51:14.126Z,43.29
2022-11-21T15:53:40.797Z,43.53
2022-11-21T15:56:21.356Z,43.58
2022-11-21T15:58:49.880Z,43.67
2022-11-21T16:01:22.677Z,43.80
2022-11-21T16:03:53.458Z,44.49
2022-11-21T16:06:34.569Z,45.47
2022-11-21T16:09:02.942Z,44.82
2022-11-21T16:11:37.371Z,44.52
2022-11-21T16:14:07.269Z,45.20
2022-11-21T16:16:42.656Z,44.47
2022-11-21T16:19:38.916Z,44.29
2022-11-21T16:22:05.461Z,44.88
2022-11-21T16:24:32.136Z,44.67
2022-11-21T16:26:58.682Z,44.34
2022-11-21T16:29:25.221Z,46.01
2022-11-21T16:31:52.281Z,45.69
2022-11-21T16:34:22.973Z,45.67
2022-11-21T16:36:50.680Z,45.81
2022-11-21T16:39:20.811Z,46.02
2022-11-21T16:41:49.400Z,46.33
2022-11-21T16:44:19.557Z,45.92
2022-11-21T16:47:15.357Z,46.06
2022-11-21T16:49:49.009Z,46.02
2022-11-21T16:52:25.249Z,45.68
2022-11-21T16:55:02.895Z,45.89
2022-11-21T16:57:30.078Z,45.53
2022-11-21T17:06:06.272Z,46.07
2022-11-21T17:08:42.344Z,45.59
2022-11-21T17:14:39.282Z,45.75
2022-11-21T17:17:09.019Z,45.40
2022-11-21T17:19:35.622Z,45.95
2022-11-21T17:22:04.912Z,45.25
2022-11-21T17:24:34.623Z,45.30
2022-11-21T17:27:03.835Z,45.23
2022-11-21T17:29:30.665Z,45.43
2022-11-21T17:31:57.398Z,45.32
2022-11-21T17:34:29.783Z,46.07
2022-11-21T17:37:09.026Z,45.62
2022-11-21T17:39:36.596Z,45.62
2022-11-21T17:42:03.659Z,45.73
2022-11-21T17:44:31.437Z,45.87
2022-11-21T17:46:59.877Z,45.97
2022-11-21T17:49:27.100Z,46.05
2022-11-21T17:51:56.607Z,46.08
2022-11-21T17:54:23.568Z,45.74
2022-11-21T17:56:56.475Z,45.80
2022-11-21T17:59:23.451Z,46.74
2022-11-21T18:01:50.001Z,46.39
2022-11-21T18:04:17.750Z,45.88
2022-11-21T18:06:44.560Z,45.46
2022-11-21T18:09:11.828Z,45.58
2022-11-21T18:11:40.428Z,45.20
2022-11-21T18:14:09.260Z,45.39
2022-11-21T18:16:39.310Z,45.56
2022-11-21T18:19:05.968Z,45.97
2022-11-21T18:21:38.199Z,45.46
2022-11-21T18:24:05.053Z,45.85
2022-11-21T18:26:34.124Z,45.29
2022-11-21T18:29:35.073Z,45.22
2022-11-21T18:31:53.393Z,46.37
2022-11-21T18:34:20.125Z,45.68
2022-11-21T18:36:47.701Z,46.20
2022-11-21T18:39:18.094Z,45.87
2022-11-21T18:41:44.805Z,46.30
2022-11-21T18:44:19.991Z,45.99
2022-11-21T18:46:48.504Z,45.38
2022-11-21T18:49:15.191Z,45.33
2022-11-21T18:51:41.718Z,46.53
2022-11-21T18:54:10.975Z,45.83
2022-11-21T18:56:39.062Z,46.52
2022-11-21T18:59:11.267Z,45.71
2022-11-21T19:01:39.700Z,45.83
2022-11-21T19:04:06.580Z,45.56
2022-11-21T19:06:33.149Z,46.10
2022-11-21T19:09:01.765Z,46.74
2022-11-21T19:11:29.996Z,46.67
2022-11-21T19:14:16.138Z,46.64
2022-11-21T19:16:48.221Z,46.52
2022-11-21T19:19:35.512Z,46.78
2022-11-21T19:22:07.429Z,46.65
2022-11-21T19:24:33.988Z,46.44
2022-11-21T19:27:00.512Z,46.60
2022-11-21T19:29:27.289Z,46.94
2022-11-21T19:31:54.211Z,47.97
2022-11-21T19:34:20.849Z,47.49
2022-11-21T19:36:47.415Z,47.69
2022-11-21T19:39:19.328Z,46.57
2022-11-21T19:41:50.524Z,47.15
2022-11-21T19:44:17.116Z,46.65
2022-11-21T19:46:43.808Z,47.10
2022-11-21T19:49:11.478Z,47.33
2022-11-21T19:51:41.875Z,47.07
2022-11-21T19:54:12.181Z,46.33
2022-11-21T19:56:39.213Z,46.52
2022-11-21T19:59:06.032Z,47.67
2022-11-21T20:01:41.817Z,46.74
2022-11-21T20:04:14.443Z,46.71
2022-11-21T20:06:46.267Z,46.80
2022-11-21T20:09:42.094Z,47.27
2022-11-21T20:12:11.526Z,47.27
2022-11-21T20:14:41.027Z,47.05
2022-11-21T20:17:09.822Z,47.81
2022-11-21T20:19:36.335Z,47.24
2022-11-21T20:22:02.817Z,47.22
2022-11-21T20:24:29.903Z,47.27
2022-11-21T20:26:56.560Z,46.52
2022-11-21T20:29:53.307Z,47.19
2022-11-21T20:32:19.840Z,47.05
2022-11-21T20:34:48.499Z,46.83
2022-11-21T20:37:14.934Z,47.11
2022-11-21T20:39:41.382Z,47.19
2022-11-21T20:42:08.207Z,46.84
2022-11-21T20:45:30.040Z,46.64
2022-11-21T20:47:25.408Z,46.18
2022-11-21T20:49:52.794Z,46.04
2022-11-21T20:55:06.917Z,46.32
2022-11-21T20:57:33.520Z,46.12
2022-11-21T21:00:00.015Z,46.32
2022-11-21T21:02:26.544Z,46.28
2022-11-21T21:05:04.979Z,46.16
2022-11-21T21:07:37.616Z,46.82
2022-11-21T21:10:05.769Z,46.75
2022-11-21T21:12:32.977Z,46.85
2022-11-21T21:15:10.632Z,47.08
2022-11-21T21:17:37.431Z,47.29
2022-11-21T21:20:04.329Z,47.09
2022-11-21T21:22:30.795Z,48.38
2022-11-21T21:24:57.652Z,47.46
2022-11-21T21:27:24.167Z,47.28
2022-11-21T21:29:51.666Z,47.37
2022-11-21T21:32:18.449Z,47.86
2022-11-21T21:34:45.098Z,47.11
2022-11-21T21:37:12.798Z,47.25
2022-11-21T21:39:39.370Z,47.55
2022-11-21T21:42:06.172Z,48.33
2022-11-21T21:44:33.703Z,48.18
2022-11-21T21:47:04.552Z,48.39
2022-11-21T21:49:31.139Z,48.02
2022-11-21T21:51:57.905Z,47.87
2022-11-21T21:54:27.222Z,48.19
2022-11-21T21:56:58.209Z,48.19
2022-11-21T21:59:27.829Z,48.27
2022-11-21T22:01:59.419Z,48.41
2022-11-21T22:04:26.221Z,48.27
2022-11-21T22:06:53.099Z,48.43
2022-11-21T22:09:20.114Z,48.67
2022-11-21T22:11:46.881Z,49.27
2022-11-21T22:14:15.766Z,48.40
2022-11-21T22:16:43.372Z,48.55
2022-11-21T22:19:09.888Z,48.16
2022-11-21T22:21:37.628Z,48.11
2022-11-21T22:24:27.474Z,48.96
2022-11-21T22:26:54.288Z,48.28
2022-11-21T22:29:20.764Z,48.44
2022-11-21T22:31:47.215Z,49.85
2022-11-21T22:34:14.360Z,49.71
2022-11-21T22:36:41.588Z,48.61
2022-11-21T22:39:08.384Z,48.92
2022-11-21T22:41:35.127Z,49.04
2022-11-21T22:44:01.744Z,49.07
2022-11-21T22:46:29.318Z,48.74
2022-11-21T22:48:56.473Z,48.96
2022-11-21T22:51:26.428Z,49.08
2022-11-21T22:53:53.038Z,49.19
2022-11-21T22:56:21.623Z,49.38
2022-11-21T22:58:49.088Z,48.94
